Main page
METAR-TAF:

METAR-TAF

Airports :

RAF Valley

Valley, Wales

latitude: 53-15N, longitude: 004-32W, elevation: 1 m

Current weather observation

The report was made 28 minutes ago, at 01:50 UTC
Wind 19 kt from the South
Temperature 10°C
Humidity 93%
Pressure 1010 hPa
Visibility: 2400 m
heavy drizzle,

METAR: EGOV 210150Z AUTO 17019KT 2400 +DZ BKN002/// SCT024/// 10/09 Q1010

Time: 02:18 (02:18 UTC)

Forecast

The report was made 7 hours and 48 minutes ago, at 18:30 UTC
Forecast valid from 20 at 18 UTC to 20 at 21 UTC
Wind 11 kt from the Southwest
Visibility 10 km or more
Few clouds at a height of 1000 ft
Temporary
from 20 at 18 UTC to 20 at 21 UTC
Visibility: 6000 m
mist
Probability 30% :
Temporary
from 20 at 19 UTC to 20 at 21 UTC
Scattered clouds at a height of 300 ft

TAF: EGOV 201830Z 2018/2021 22011KT 9999 FEW010 TEMPO 2018/2021 6000 BR PROB30 TEMPO 2019/2021 SCT003

Weather observations and forecasts of more than 4000 airports (METAR and TAF reports).

The available stations are represented by yellow and red dots on the map.

Hover mouse over dot to see the name of the station.

Then click to see weather observations and forecasts.

To change the map : click on the green buttons with a black cross to zoom in, on the green button with a dash to zoom out, or on the green arrows for adjacent maps.


METAR-TAF: